Pablo Ortiz

Scout - Athletic Bilbao
25 Dec 2027
Saturday
Process

Personality

Adaptability (10) Ambition (2) Controversy (3) Loyalty (15) Pressure (2) Professionalism (5) Sportsmanship (16) Temperament (7)

Profile

Coaching Style Democratic
License Continental C
Determination 15
Man Management 9
Motivating 10
Discipline 14
Job Satisfaction
100%
Fatigue
0%
Role Scout
Wage 67.9K p/w
Contract 14.03.2030

Performance

Behaviour Good
Training Effectiveness
52%
Player Development
40%
Injury Prevention
40%
Tactical Implementation
70%

Recent Events

Attended a recruitment meeting now
Attended a recruitment meeting now
Attended a recruitment meeting now
Attended a recruitment meeting 7d ago
Attended a recruitment meeting 7d ago
Attended a recruitment meeting 7d ago
Attended a recruitment meeting 7d ago
Observed a match 7d ago

Currently Monitoring

100
Player Club Status Ability Confidence Watched Last Observed Latest Vote
Jaydee Canvot Liverpool Active 143 / 131 40% 5 31.05.2027 -
Miloš Kerkez Liverpool Active 156 / 158 40% 2 29.05.2027 -
José Ángel Carmona Sevilla Active 150 / 157 40% 1 29.05.2027 -
Enzo Cardozo Virtus Entella Active 108 / 115 40% 2 28.05.2027 -
Pedro Porro Tottenham Active 143 / 141 40% 3 28.05.2027 -
Leny Yoro Monaco Active 141 / 149 40% 1 28.05.2027 -
Adrien Truffert Bournemouth Active 157 / 152 40% 1 28.05.2027 -
Alpha Touré FC Metz Active 123 / 113 40% 3 26.05.2027 -
Ollie Scarles Chelsea Active 119 / 135 40% 1 26.05.2027 -
James Garner Everton Active 153 / 143 40% 1 25.05.2027 -
Juanlu Bournemouth Active 146 / 149 40% 2 23.05.2027 -
Lucas Jetten Cambuur Active 101 / 119 40% 1 21.05.2027 -
Maxence Lacroix Chelsea Active 159 / 152 40% 1 19.05.2027 -
Levi Colwill Chelsea Active 169 / 166 40% 1 19.05.2027 -
Caleb Yirenkyi Coventry City Active 146 / 139 40% 2 18.05.2027 -
Izan Merino Málaga Lost 129 / 123 40% 2 17.05.2027 -
Dylan Lawlor Cardiff City Active 104 / 127 40% 1 16.05.2027 -
Yusi Alavés Active 135 / 142 40% 7 15.05.2027 -
Warren Zaïre-Emery Paris Saint-Germain Active 155 / 160 40% 4 14.05.2027 -
Bastien Meupiyou Alverca Active 115 / 126 40% 1 14.05.2027 -
Sascha Britschgi Catanzaro Active 110 / 124 40% 1 13.05.2027 -
Davide Bartesaghi AC Milan Active 132 / 133 40% 1 12.05.2027 -
Celías Ingenthron Platense Active 100 / 115 40% 2 08.05.2027 -
Toni Tamarit Alverca Active 112 / 117 40% 2 06.05.2027 -
Óscar Mingueza Crystal Palace Active 148 / 155 40% 2 04.05.2027 -
Fran García Betis Active 157 / 155 40% 2 04.05.2027 -
Tuerto Sevilla Active 147 / 154 40% 1 03.05.2027 -
Renato Veiga Villarreal Active 152 / 141 40% 1 02.05.2027 -
Yehor Yarmoliuk Brentford Active 139 / 145 40% 1 02.05.2027 -
Taras Mykhavko Dynamo Kyiv Active 143 / 113 40% 1 28.04.2027 -
Victor Froholdt Porto Active 145 / 146 40% 1 28.04.2027 -
Antonio Blanco Alavés Active 150 / 147 40% 1 25.04.2027 -
Adam Wharton Crystal Palace Active 145 / 146 40% 1 25.04.2027 -
Boubacar Kamara Aston Villa Active 174 / 170 40% 2 23.04.2027 Needs More Info
Tiago Santos LOSC Lille Active 146 / 142 40% 1 23.04.2027 -
Lucas Bergvall Tottenham Active 148 / 151 40% 1 20.04.2027 -
Valentin Atangana Al-Ahli Active 142 / 145 40% 1 19.04.2027 -
Alberto Costa Porto Active 139 / 141 40% 4 18.04.2027 -
Amadou Onana Newcastle United Active 149 / 147 40% 1 17.04.2027 -
Thomas Alderweireld Dijon Active 128 / 139 40% 2 14.04.2027 -
Pau Navarro Villarreal Active 146 / 141 40% 3 12.04.2027 -
Curtis Jones Inter Active 160 / 163 40% 1 09.04.2027 -
Logan Costa Villarreal Active 138 / 143 40% 1 07.04.2027 -
Eivind Helland Bologna Active 135 / 134 40% 1 06.04.2027 -
Nico González Newcastle United Active 153 / 156 40% 1 05.04.2027 Needs More Info
Khéphren Thuram Juventus Active 152 / 158 40% 2 30.03.2027 Needs More Info
Flavien-Enzo Boyomo Osasuna Active 137 / 157 40% 1 29.03.2027 -
Ilaix Moriba Celta Active 139 / 149 40% 1 26.03.2027 -
Alexsandro Ribeiro LOSC Lille Active 135 / 144 40% 1 25.03.2027 -
Vitinha Paris Saint-Germain Active 176 / 174 40% 1 25.03.2027 -
Natan Betis Active 134 / 142 40% 1 23.03.2027 -
Marc Guéhi Manchester City Active 157 / 164 40% 1 10.03.2027 -
Eric García Barcelona Active 153 / 148 40% 1 01.03.2027 -
Manu Koné AS Roma Active 152 / 154 40% 1 01.03.2027 Needs More Info
Samuel Lucero Defensa y Justicia Active 124 / 111 40% 1 31.12.2026 -
Bobby Clark Derby County Active 131 / 126 40% 1 30.12.2026 -
Agustín Ruberto River Plate Active 113 / 135 40% 2 29.12.2026 -
Carlos Vicente Udinese Active 153 / 134 40% 1 27.12.2026 -
Carlos Álvarez Club America Active 145 / 128 40% 4 26.12.2026 -
Gonzalo Fulham Active 154 / 140 40% 2 26.12.2026 -
Jorrel Hato Chelsea Active 146 / 148 40% 1 24.12.2026 -
Carlo Adriano Queretaro Active 110 / 117 40% 1 23.12.2026 -
Enzo Loiodice KAA Gent Active 134 / 131 40% 1 23.12.2026 -
Tomás Aranda Boca Juniors Active 121 / 118 40% 9 22.12.2026 -
Arda Güler Real Madrid Active 156 / 153 40% 1 22.12.2026 -
Borja Sainz Porto Active 134 / 153 40% 1 22.12.2026 -
Andrés Martín Racing Santander Active 142 / 139 40% 1 22.12.2026 -
El Hadji Malick Diouf Brentford Active 136 / 134 40% 1 20.12.2026 -
Martín Zubimendi Arsenal Active 164 / 163 40% 1 19.12.2026 -
Gianluca Prestianni Benfica Active 123 / 142 40% 1 16.12.2026 -
Thiago Almada Fiorentina Active 159 / 145 40% 2 15.12.2026 -
Ferran Torres Paris Saint-Germain Active 162 / 165 40% 1 15.12.2026 -
Lucas Agazzi Defensor Sporting Active 131 / 127 40% 2 14.12.2026 -
Tiziano Dornell Almagro Active 111 / 121 40% 7 10.12.2026 -
Xavier Biscayzacú Sporting CP Active 136 / 121 40% 2 09.12.2026 -
Désiré Doué Paris Saint-Germain Active 151 / 172 40% 1 08.12.2026 -
Fer López Wolverhampton Active 144 / 133 40% 1 03.12.2026 -
Mateo Aguiar Defensa y Justicia Active 110 / 117 40% 1 02.12.2026 -
Dilan Godoy Vélez Active 104 / 116 40% 5 01.12.2026 -
Robert FC Copenhagen Active 117 / 125 40% 1 01.12.2026 -
Nacer Mignolet KV Oostende Active 117 / 142 40% 1 26.11.2026 -
Pedri Barcelona Active 175 / 178 40% 1 26.11.2026 -
Álex Baena Atlético Madrid Active 154 / 158 40% 1 26.11.2026 -
Noah Sadiki Sunderland Active 139 / 148 40% 1 23.11.2026 -
Nico O'Reilly Manchester City Active 145 / 154 40% 1 23.11.2026 -
Mathys Tel Stade Rennais Active 143 / 151 40% 1 17.11.2026 -
Matías Fernández-Pardo Newcastle United Active 136 / 147 40% 3 15.11.2026 -
Mihailo Ivanović Millwall Active 118 / 133 40% 2 15.11.2026 -
Valentino Acuña Newell's Old Boys Active 120 / 120 40% 1 10.11.2026 -
Alexey Batrakov Galatasaray Active 160 / 132 40% 1 08.11.2026 -
Dylan Gorosito Boca Juniors Active 123 / 116 40% 1 01.11.2026 -
Jan Virgili Club Brugge Active 120 / 128 40% 2 30.10.2026 -
Chemsdine Talbi Sunderland Active 145 / 149 40% 1 30.10.2026 -
Nicolás Azambuja Danubio Active 110 / 134 40% 4 21.10.2026 -
Alan Forneris Racing Club Active 105 / 123 40% 2 18.10.2026 -
Javier Mena Aguilas Doradas Active 118 / 114 40% 1 18.10.2026 -
Ramiro Hernandes Belgrano Active 115 / 131 40% 2 17.10.2026 -
Sindre Walle Egeli Nottingham Forest Active 139 / 133 40% 2 03.10.2026 -
Jofre Torrents Ajax Active 115 / 129 40% 1 16.09.2026 -
Kiko Femenía Getafe Active 136 / 136 51% 1 24.08.2026 -